ADDS METAR Data INFO
IDs: Format: Raw Decoded Include TAF

Data at: 0202 UTC 19 Jul 2018

KBKS 190155Z AUTO 13008KT 10SM CLR 31/24 A2989 RMK AO1 T03110235
KBKS 190135Z AUTO 12006KT 10SM CLR 32/24 A2988 RMK AO1 T03170239
KBKS 190115Z AUTO 12009KT 10SM CLR 33/24 A2988 RMK AO1 T03260240
KBKS 190055Z AUTO 12008KT 10SM CLR 33/24 A2987 RMK AO1 T03320235
KBKS 190035Z AUTO 11011KT 7SM CLR 34/24 A2987 RMK AO1 T03380236
KBKS 190015Z AUTO 10011G17KT 10SM CLR 35/23 A2987 RMK AO1 T03470231
KBKS 182355Z AUTO 10013G16KT 10SM CLR 36/23 A2986 RMK AO1 T03560229 10384 20352
KBKS 182335Z AUTO 12010KT 10SM CLR 38/15 A2986 RMK AO1 T03750154
KBKS 182315Z AUTO 12006KT 10SM CLR 38/15 A2987 RMK AO1 T03750145
KBKS 182255Z AUTO 13007KT 10SM CLR 38/15 A2987 RMK AO1 T03770154
KBKS 182235Z AUTO 14012G15KT 10SM CLR 38/16 A2987 RMK AO1 T03770158
KBKS 182215Z AUTO 13010G14KT 10SM CLR 38/17 A2988 RMK AO1 T03800167
KBKS 182155Z AUTO 13010KT 10SM CLR 38/18 A2988 RMK AO1 T03770175
KBKS 182135Z AUTO 15009G16KT 10SM CLR 38/17 A2989 RMK AO1 T03800174
KBKS 182115Z AUTO 14005G09KT 10SM CLR 38/18 A2990 RMK AO1 T03780181
KBKS 182055Z AUTO 11009G16KT 10SM CLR 38/18 A2991 RMK AO1 T03820179
KBKS 182035Z AUTO 14009KT 10SM CLR 38/18 A2991 RMK AO1 T03770181
KBKS 182015Z AUTO 16006G15KT 10SM CLR 38/17 A2992 RMK AO1 T03780167
KBKS 181955Z AUTO 17009G16KT 10SM CLR 37/18 A2993 RMK AO1 T03730177
KBKS 181935Z AUTO 16009G15KT 10SM CLR 37/18 A2993 RMK AO1 T03720181
KBKS 181915Z AUTO 15009KT 10SM CLR 37/19 A2994 RMK AO1 T03660193
KBKS 181855Z AUTO 13005KT 10SM CLR 36/20 A2995 RMK AO1 T03600197
KBKS 181835Z AUTO 19008KT 10SM CLR 36/19 A2996 RMK AO1 T03640194
KBKS 181815Z AUTO 18008G14KT 10SM CLR 36/20 A2996 RMK AO1 T03600198
KBKS 181755Z AUTO 14008KT 10SM CLR 35/20 A2997 RMK AO1 T03530199 10354 20238
KBKS 181735Z AUTO 20009G14KT 10SM CLR 35/20 A2998 RMK AO1 T03490198
KBKS 181715Z AUTO 16009G14KT 10SM CLR 35/20 A2998 RMK AO1 T03460202
KBKS 181655Z AUTO 19010KT 10SM CLR 34/20 A2999 RMK AO1 T03400203
KBKS 181635Z AUTO 19009G19KT 10SM CLR 34/20 A2999 RMK AO1 T03360202
KBKS 181615Z AUTO 16009G14KT 10SM CLR 33/22 A2999 RMK AO1 T03280215
KBKS 181555Z AUTO 15012KT 10SM CLR 32/22 A3000 RMK AO1 T03200223
KBKS 181535Z AUTO 15009KT 10SM CLR 31/23 A3001 RMK AO1 T03110228
KBKS 181520Z AUTO 16009KT 10SM CLR 31/23 A3001 RMK AO1 T03090228
KBKS 181455Z AUTO 14010G15KT 10SM CLR 30/23 A3002 RMK AO1 T03020231
KBKS 181435Z AUTO 17010KT 10SM CLR 29/24 A3002 RMK AO1 T02920240
KBKS 181415Z AUTO 15007KT 10SM SCT010 28/24 A3002 RMK AO1 T02810240
KBKS 181355Z AUTO 15010KT 7SM SCT010 27/24 A3002 RMK AO1 T02740240
KBKS 181335Z AUTO 14005KT 7SM SCT006 27/24 A3002 RMK AO1 T02650242
KBKS 181315Z AUTO 11004KT 5SM SCT001 SCT006 26/24 A3002 RMK AO1 T02560241
KBKS 181255Z AUTO 08003KT 2 1/2SM BKN001 BKN011 25/24 A3002 RMK AO1 T02460235
KBKS 181235Z AUTO 07004KT 1 1/2SM BKN001 BKN012 24/23 A3002 RMK AO1 T02400230
KBKS 181215Z AUTO 08003KT 2SM 24/23 A3002 RMK AO1 SKY OBSCURED T02390228
KBKS 181155Z AUTO 09004KT 4SM CLR 24/23 A3001 RMK AO1 T02430231 10268 20243
KBKS 181135Z AUTO 12004KT 5SM CLR 25/23 A3000 RMK AO1 T02450233
KBKS 181115Z AUTO 13004KT 5SM CLR 25/23 A3000 RMK AO1 T02460234
KBKS 181055Z AUTO 13003KT 5SM CLR 25/23 A3000 RMK AO1 T02460233
KBKS 181035Z AUTO 13004KT 5SM CLR 25/23 A3000 RMK AO1 T02450232
KBKS 181015Z AUTO 00000KT 5SM CLR 25/23 A3000 RMK AO1 T02450230
KBKS 180955Z AUTO 13003KT 5SM CLR 24/23 A3000 RMK AO1 T02430230
KBKS 180935Z AUTO 00000KT 5SM CLR 25/23 A3000 RMK AO1 T02450230
KBKS 180915Z AUTO 00000KT 7SM CLR 25/23 A3000 RMK AO1 T02500232
KBKS 180855Z AUTO 16003KT 7SM CLR 25/23 A3000 RMK AO1 T02500232
KBKS 180835Z AUTO 17004KT 7SM CLR 25/23 A3000 RMK AO1 T02520233
KBKS 180815Z AUTO 16004KT 7SM CLR 26/24 A3000 RMK AO1 T02560235
KBKS 180755Z AUTO 16005KT 7SM CLR 26/23 A3000 RMK AO1 T02570234
KBKS 180735Z AUTO 16006KT 7SM CLR 26/23 A3000 RMK AO1 T02580233
KBKS 180715Z AUTO 17006KT 7SM CLR 26/23 A3001 RMK AO1 T02600233
KBKS 180655Z AUTO 17005KT 7SM CLR 26/24 A3001 RMK AO1 T02620235
KBKS 180635Z AUTO 16005KT 7SM CLR 26/24 A3001 RMK AO1 T02640235
KBKS 180615Z AUTO 16006KT 7SM CLR 27/24 A3001 RMK AO1 T02650236
KBKS 180555Z AUTO 15006KT 7SM CLR 27/24 A3002 RMK AO1 T02680238 10338 20268 403740237
KBKS 180535Z AUTO 15007KT 10SM CLR 27/24 A3002 RMK AO1 T02710239
KBKS 180515Z AUTO 15007KT 10SM CLR 27/24 A3002 RMK AO1 T02740240
KBKS 180455Z AUTO 15008KT 10SM CLR 28/24 A3001 RMK AO1 T02770240
KBKS 180435Z AUTO 14008KT 10SM CLR 28/24 A3001 RMK AO1 T02800240
KBKS 180415Z AUTO 14007KT 10SM CLR 28/24 A3000 RMK AO1 T02830240
KBKS 180355Z AUTO 14009KT 10SM CLR 29/24 A3000 RMK AO1 T02870241
KBKS 180335Z AUTO 13007KT 10SM CLR 29/24 A2999 RMK AO1 T02900240
KBKS 180315Z AUTO 14008KT 10SM CLR 29/24 A2999 RMK AO1 T02920240
KBKS 180255Z AUTO 13008KT 10SM CLR 30/24 A2998 RMK AO1 T02950240
KBKS 180235Z AUTO 13009KT 10SM CLR 30/24 A2998 RMK AO1 T02980238
KBKS 180215Z AUTO 11007KT 10SM CLR 30/24 A2998 RMK AO1 T03010238
KBKS 180155Z AUTO 11009KT 10SM CLR 31/24 A2998 RMK AO1 T03060240
KBKS 180135Z AUTO 12013KT 10SM CLR 31/24 A2997 RMK AO1 T03100240
KBKS 180115Z AUTO 12009KT 10SM CLR 32/24 A2997 RMK AO1 T03150243
KBKS 180055Z AUTO 11010G14KT 10SM CLR 32/25 A2997 RMK AO1 T03220245
KBKS 180035Z AUTO 12014KT 10SM CLR 33/24 A2996 RMK AO1 T03280244
KBKS 180015Z AUTO 10015G20KT 10SM CLR 33/24 A2996 RMK AO1 T03330244
KBKS 172355Z AUTO 11012KT 10SM CLR 34/24 A2996 RMK AO1 T03390244 10374 20339
KBKS 172335Z AUTO 12014G18KT 10SM CLR 35/25 A2996 RMK AO1 T03460245
KBKS 172315Z AUTO 10015KT 10SM SCT070 35/25 A2996 RMK AO1 T03500245
KBKS 172255Z AUTO 13012G15KT 10SM SCT049 SCT060 BKN070 36/23 A2996 RMK AO1 T03570233
KBKS 172235Z AUTO 12011KT 10SM CLR 37/22 A2996 RMK AO1 T03690215
KBKS 172215Z AUTO 13006KT 10SM CLR 37/18 A2996 RMK AO1 T03680182
KBKS 172155Z AUTO 12008KT 10SM CLR 37/19 A2996 RMK AO1 T03720187
KBKS 172135Z AUTO 15012G17KT 10SM CLR 37/19 A2997 RMK AO1 T03710192
KBKS 172115Z AUTO 13009KT 10SM CLR 37/18 A2998 RMK AO1 T03690183
KBKS 172055Z AUTO 16004KT 10SM SCT060 37/19 A2998 RMK AO1 T03670192
KBKS 172035Z AUTO 14009KT 10SM SCT060 37/20 A2999 RMK AO1 T03670196
KBKS 172015Z AUTO 12007KT 10SM CLR 36/20 A2999 RMK AO1 T03610203
KBKS 171955Z AUTO 15006KT 10SM CLR 37/19 A3000 RMK AO1 T03650193
KBKS 171935Z AUTO 14010KT 10SM CLR 36/19 A3001 RMK AO1 T03610192
KBKS 171915Z AUTO 12008KT 10SM CLR 36/20 A3001 RMK AO1 T03570197
KBKS 171855Z AUTO 14007KT 110V180 10SM CLR 35/21 A3001 RMK AO1 T03540213
KBKS 171835Z AUTO 14007KT 10SM CLR 35/21 A3002 RMK AO1 T03470210
KBKS 171815Z AUTO 15006KT 10SM CLR 35/22 A3003 RMK AO1 T03450215
KBKS 171755Z AUTO 15008KT 10SM CLR 35/22 A3004 RMK AO1 T03460218 10346 20237
KBKS 171735Z AUTO 16007G14KT 140V200 10SM CLR 34/22 A3004 RMK AO1 T03390217
KBKS 171715Z AUTO 16010G14KT 10SM CLR 33/22 A3004 RMK AO1 T03340217
KBKS 171655Z AUTO 16007KT 10SM CLR 33/23 A3004 RMK AO1 T03270225
KBKS 171635Z AUTO 18009KT 10SM CLR 32/22 A3005 RMK AO1 T03220221
KBKS 171615Z AUTO 14010KT 10SM SCT025 32/23 A3005 RMK AO1 T03160229
KBKS 171555Z AUTO 15011KT 10SM SCT025 31/23 A3005 RMK AO1 T03100233
KBKS 171535Z AUTO 16010G15KT 10SM CLR 30/23 A3005 RMK AO1 T03040227
KBKS 171515Z AUTO 16011KT 10SM SCT015 30/24 A3005 RMK AO1 T02990235
KBKS 171455Z AUTO 18010G14KT 10SM SCT015 29/24 A3005 RMK AO1 T02940240
KBKS 171435Z AUTO 17011KT 10SM SCT012 28/24 A3006 RMK AO1 T02830242
KBKS 171415Z AUTO 17008KT 10SM SCT010 28/24 A3006 RMK AO1 T02750241